Time;durP1;ratioP1;P1;durP2;ratioP2;P2;SDS_P1;SDS_P2;PMS_P1;PMS_P2;Temp;Humidity;BMP_temperature;BMP_pressure;BME280_temperature;BME280_humidity;BME280_pressure;Samples;Min_cycle;Max_cycle;Signal;HPM_P1;HPM_P2
2024/01/24 00:00:05;;;;;;;7.90;2.75;;;7.20;99.90;;;;;;5097460;28;20028;-53
2024/01/24 00:02:31;;;;;;;5.50;2.03;;;7.20;99.90;;;;;;5095854;28;20449;-58
2024/01/24 00:04:56;;;;;;;6.88;2.63;;;7.30;99.90;;;;;;5096701;28;20095;-52
2024/01/24 00:07:22;;;;;;;3.63;1.85;;;7.30;99.90;;;;;;5096981;28;20095;-53
2024/01/24 00:09:47;;;;;;;3.15;2.03;;;7.30;99.90;;;;;;5098793;28;20408;-55
2024/01/24 00:12:13;;;;;;;5.13;1.83;;;7.40;99.90;;;;;;5096732;28;20016;-53
2024/01/24 00:14:39;;;;;;;5.95;2.45;;;7.40;99.90;;;;;;5098009;28;20020;-53
2024/01/24 00:17:05;;;;;;;2.60;1.80;;;7.50;99.90;;;;;;5098334;28;20038;-54
2024/01/24 00:19:31;;;;;;;3.78;1.70;;;7.50;99.90;;;;;;5097243;28;20496;-53
2024/01/24 00:21:56;;;;;;;3.20;1.67;;;7.60;99.90;;;;;;5097757;28;20015;-51
2024/01/24 00:24:22;;;;;;;4.65;1.77;;;7.70;99.90;;;;;;5094887;28;20615;-54
2024/01/24 00:26:47;;;;;;;3.78;1.50;;;7.80;99.90;;;;;;5096908;28;20016;-53
2024/01/24 00:29:13;;;;;;;6.38;1.90;;;7.80;99.90;;;;;;5096031;28;20269;-53
2024/01/24 00:31:39;;;;;;;3.75;2.35;;;7.80;99.90;;;;;;5094904;28;20081;-54
2024/01/24 00:34:05;;;;;;;7.10;2.20;;;7.80;99.90;;;;;;5092186;28;20126;-53
2024/01/24 00:36:30;;;;;;;2.30;1.80;;;7.80;99.90;;;;;;5094075;28;20020;-52
2024/01/24 00:38:56;;;;;;;3.97;2.00;;;7.80;99.90;;;;;;5092397;28;20028;-52
2024/01/24 00:41:21;;;;;;;4.25;2.30;;;7.80;99.90;;;;;;5092434;28;20501;-53
2024/01/24 00:43:47;;;;;;;4.72;2.10;;;7.80;99.90;;;;;;5092590;28;20434;-53
2024/01/24 00:46:13;;;;;;;6.05;2.20;;;7.80;99.90;;;;;;5093572;28;20032;-52
2024/01/24 00:48:38;;;;;;;8.13;1.95;;;7.80;99.90;;;;;;5092605;28;20028;-53
2024/01/24 00:51:04;;;;;;;6.43;2.30;;;7.80;99.90;;;;;;5091761;28;20019;-52
2024/01/24 00:53:33;;;;;;;5.65;1.90;;;7.80;99.90;;;;;;5093563;28;20397;-52
2024/01/24 00:55:59;;;;;;;4.38;2.10;;;7.80;99.90;;;;;;5092087;28;20020;-52
2024/01/24 00:58:25;;;;;;;9.40;2.10;;;7.90;99.90;;;;;;5093128;28;20484;-53
2024/01/24 01:00:50;;;;;;;4.90;1.95;;;7.90;99.90;;;;;;5092618;28;20320;-52
2024/01/24 01:03:16;;;;;;;7.68;2.55;;;7.90;99.90;;;;;;5094505;28;20021;-53
2024/01/24 01:05:42;;;;;;;4.32;2.13;;;7.90;99.90;;;;;;5093599;28;20024;-52
2024/01/24 01:08:08;;;;;;;4.05;1.63;;;8.00;99.90;;;;;;5093426;28;20202;-53
2024/01/24 01:10:33;;;;;;;5.57;2.00;;;8.00;99.90;;;;;;5093674;28;20019;-52
2024/01/24 01:12:59;;;;;;;3.63;1.70;;;8.10;99.90;;;;;;5092361;28;20517;-53
2024/01/24 01:15:25;;;;;;;4.85;2.20;;;8.20;99.90;;;;;;5095427;28;20063;-53
2024/01/24 01:17:51;;;;;;;2.92;1.80;;;8.20;99.90;;;;;;5093426;28;20021;-54
2024/01/24 01:20:19;;;;;;;2.42;1.65;;;8.20;99.90;;;;;;5095089;28;20504;-53
2024/01/24 01:22:45;;;;;;;7.97;2.13;;;8.20;99.90;;;;;;5093548;28;20530;-53
2024/01/24 01:25:11;;;;;;;4.93;1.90;;;8.30;99.90;;;;;;5094387;28;20074;-53
2024/01/24 01:27:37;;;;;;;4.25;1.80;;;8.30;99.90;;;;;;5094654;28;20490;-52
2024/01/24 01:30:04;;;;;;;1.63;1.40;;;8.40;99.90;;;;;;5071908;28;20478;-53
2024/01/24 01:32:29;;;;;;;3.67;1.38;;;8.40;99.90;;;;;;5094869;28;20036;-52
2024/01/24 01:34:55;;;;;;;3.35;1.75;;;8.50;99.90;;;;;;5093729;28;20081;-52
2024/01/24 01:37:23;;;;;;;4.57;1.65;;;8.50;99.90;;;;;;5095441;28;20472;-52
2024/01/24 01:39:52;;;;;;;3.90;1.50;;;8.50;99.90;;;;;;5086043;28;20116;-52
2024/01/24 01:42:18;;;;;;;3.97;1.60;;;8.60;99.90;;;;;;5093470;28;20052;-53
2024/01/24 01:44:49;;;;;;;1.95;1.23;;;8.60;99.90;;;;;;5094121;28;20062;-52
2024/01/24 01:47:15;;;;;;;2.70;1.38;;;8.60;99.90;;;;;;5094489;28;20030;-53
2024/01/24 01:49:44;;;;;;;4.07;1.52;;;8.60;99.90;;;;;;5093257;28;20027;-53
2024/01/24 01:52:10;;;;;;;7.00;2.50;;;8.70;99.90;;;;;;5093641;28;20043;-53
2024/01/24 01:54:41;;;;;;;5.53;2.00;;;8.70;99.90;;;;;;5095378;28;20031;-55
2024/01/24 01:57:11;;;;;;;4.93;1.63;;;8.80;99.90;;;;;;5093775;28;20042;-53
2024/01/24 01:59:40;;;;;;;5.93;1.42;;;8.80;99.90;;;;;;5095309;28;20035;-53
2024/01/24 02:02:06;;;;;;;4.25;1.40;;;8.80;99.90;;;;;;5093099;28;20028;-52
2024/01/24 02:04:32;;;;;;;5.80;1.30;;;8.80;99.90;;;;;;5094560;28;20020;-53
2024/01/24 02:06:58;;;;;;;3.80;1.65;;;8.80;99.90;;;;;;5092604;28;20039;-53
2024/01/24 02:09:24;;;;;;;3.15;1.65;;;8.90;99.90;;;;;;5096149;28;20313;-53
2024/01/24 02:11:50;;;;;;;3.38;1.73;;;8.90;99.90;;;;;;5093203;28;20119;-52
2024/01/24 02:14:16;;;;;;;6.13;1.88;;;8.90;99.90;;;;;;5094955;28;20028;-53
2024/01/24 02:16:41;;;;;;;4.72;1.67;;;9.00;99.90;;;;;;5093666;28;20035;-53
2024/01/24 02:19:07;;;;;;;3.08;1.48;;;9.00;99.90;;;;;;5093835;28;20103;-52
2024/01/24 02:21:33;;;;;;;4.80;1.52;;;9.00;99.90;;;;;;5095415;28;20024;-50
2024/01/24 02:24:03;;;;;;;6.78;2.13;;;9.10;99.90;;;;;;5094166;28;20474;-53
2024/01/24 02:26:29;;;;;;;2.35;1.58;;;9.10;99.90;;;;;;5099588;28;20062;-53
2024/01/24 02:28:55;;;;;;;1.90;1.35;;;9.00;99.90;;;;;;5096583;28;20027;-53
2024/01/24 02:31:20;;;;;;;6.25;1.65;;;9.10;99.90;;;;;;5099562;28;20032;-52
2024/01/24 02:33:46;;;;;;;2.53;1.60;;;9.00;99.90;;;;;;5098658;28;20063;-53
2024/01/24 02:36:15;;;;;;;4.95;1.95;;;9.00;99.90;;;;;;5098741;28;20062;-52
2024/01/24 02:38:43;;;;;;;3.60;1.52;;;9.00;99.90;;;;;;5099326;28;20061;-53
2024/01/24 02:41:09;;;;;;;2.03;1.63;;;9.00;99.90;;;;;;5097838;28;20017;-53
2024/01/24 02:43:35;;;;;;;6.05;2.30;;;9.00;99.90;;;;;;5098971;28;20027;-53
2024/01/24 02:46:01;;;;;;;3.47;1.88;;;9.00;99.90;;;;;;5097800;28;20020;-53
2024/01/24 02:48:27;;;;;;;6.70;1.92;;;9.00;99.90;;;;;;5101264;28;20026;-54
2024/01/24 02:50:53;;;;;;;2.15;1.50;;;9.10;99.90;;;;;;5097815;28;20027;-51
2024/01/24 02:53:19;;;;;;;3.00;1.77;;;9.10;99.90;;;;;;5099139;28;20026;-52
2024/01/24 02:55:45;;;;;;;3.40;1.73;;;9.10;99.90;;;;;;5099262;27;20027;-53
2024/01/24 02:58:11;;;;;;;2.53;1.70;;;9.20;99.90;;;;;;5099200;28;20043;-50
2024/01/24 03:00:37;;;;;;;2.38;1.88;;;9.20;99.90;;;;;;5098744;28;20028;-50
2024/01/24 03:03:03;;;;;;;2.55;1.95;;;9.20;99.90;;;;;;5097909;28;20204;-53
2024/01/24 03:05:29;;;;;;;4.47;1.70;;;9.20;99.90;;;;;;5101172;28;20069;-52
2024/01/24 03:07:55;;;;;;;4.97;2.05;;;9.20;99.90;;;;;;5097471;28;20416;-51
2024/01/24 03:10:22;;;;;;;6.70;2.00;;;9.30;99.90;;;;;;5099884;28;20035;-52
2024/01/24 03:12:48;;;;;;;3.10;2.17;;;9.30;99.90;;;;;;5097760;28;20084;-51
2024/01/24 03:15:14;;;;;;;4.97;1.83;;;9.30;99.90;;;;;;5099216;28;20027;-51
2024/01/24 03:17:40;;;;;;;2.45;1.95;;;9.30;99.90;;;;;;5100106;28;20012;-49
2024/01/24 03:20:07;;;;;;;2.17;1.65;;;9.30;99.90;;;;;;5097931;28;20040;-52
2024/01/24 03:22:32;;;;;;;2.55;1.60;;;9.30;99.90;;;;;;5099406;28;20015;-51
2024/01/24 03:24:58;;;;;;;3.60;1.60;;;9.40;99.90;;;;;;5098124;28;20024;-52
2024/01/24 03:27:24;;;;;;;4.72;1.92;;;9.40;99.90;;;;;;5100734;28;20024;-52
2024/01/24 03:29:50;;;;;;;4.88;1.77;;;9.40;99.90;;;;;;5099149;28;20250;-51
2024/01/24 03:32:18;;;;;;;3.28;1.60;;;9.40;99.90;;;;;;5097636;28;20039;-50
2024/01/24 03:34:52;;;;;;;3.25;1.30;;;9.50;99.90;;;;;;5099860;28;20030;-52
2024/01/24 03:37:18;;;;;;;3.35;1.80;;;9.50;99.90;;;;;;5099286;28;20031;-52
2024/01/24 03:39:44;;;;;;;3.40;1.77;;;9.50;99.90;;;;;;5099737;28;20023;-49
2024/01/24 03:42:10;;;;;;;7.10;2.42;;;9.60;99.90;;;;;;5097955;28;20048;-50
2024/01/24 03:44:36;;;;;;;4.47;2.13;;;9.50;99.90;;;;;;5101066;28;20039;-49
2024/01/24 03:47:01;;;;;;;3.25;1.70;;;9.60;99.90;;;;;;5097904;28;20489;-49
2024/01/24 03:49:27;;;;;;;1.70;1.60;;;9.60;99.90;;;;;;5100688;28;20012;-52
2024/01/24 03:51:53;;;;;;;3.05;1.90;;;9.60;99.90;;;;;;5097542;28;20359;-53
2024/01/24 03:54:19;;;;;;;2.40;1.98;;;9.60;99.90;;;;;;5099635;28;20055;-53
2024/01/24 03:56:45;;;;;;;4.07;1.80;;;9.70;99.90;;;;;;5099729;28;20111;-52
2024/01/24 03:59:10;;;;;;;3.50;1.67;;;9.70;99.90;;;;;;5098462;28;20122;-53
2024/01/24 04:01:36;;;;;;;2.72;1.65;;;9.70;99.90;;;;;;5100756;28;20531;-49
2024/01/24 04:04:02;;;;;;;3.15;1.60;;;9.70;99.90;;;;;;5097941;28;20027;-54
2024/01/24 04:06:28;;;;;;;1.65;1.38;;;9.70;99.90;;;;;;5101188;28;20089;-52
2024/01/24 04:08:53;;;;;;;3.50;1.42;;;9.80;99.90;;;;;;5098507;28;20230;-53
2024/01/24 04:11:19;;;;;;;2.38;1.70;;;9.80;99.90;;;;;;5099474;28;20028;-52
2024/01/24 04:13:50;;;;;;;2.47;1.48;;;9.90;99.90;;;;;;5099853;28;20020;-53
2024/01/24 04:16:15;;;;;;;2.42;1.50;;;9.90;99.90;;;;;;5097896;28;20553;-53
2024/01/24 04:18:41;;;;;;;3.60;1.58;;;9.90;99.90;;;;;;5100594;28;20027;-52
2024/01/24 04:21:06;;;;;;;2.00;1.23;;;10.00;99.90;;;;;;5097987;28;20031;-52
2024/01/24 04:23:32;;;;;;;2.22;1.17;;;10.00;99.90;;;;;;5100408;28;20031;-50
2024/01/24 04:25:58;;;;;;;1.88;1.50;;;10.00;99.90;;;;;;5097302;28;20020;-51
2024/01/24 04:28:23;;;;;;;3.00;1.73;;;10.00;99.90;;;;;;5100535;28;20460;-53
2024/01/24 04:30:49;;;;;;;1.83;1.50;;;10.10;99.90;;;;;;5099394;28;20396;-52
2024/01/24 04:33:14;;;;;;;2.70;1.73;;;10.10;99.90;;;;;;5099169;28;20036;-52
2024/01/24 04:35:40;;;;;;;3.78;1.95;;;10.20;99.90;;;;;;5101051;28;20024;-57
2024/01/24 04:38:06;;;;;;;2.55;1.60;;;10.20;99.90;;;;;;5097655;28;20024;-57
2024/01/24 04:40:31;;;;;;;2.50;1.50;;;10.30;99.90;;;;;;5101205;28;20023;-53
2024/01/24 04:42:57;;;;;;;5.78;2.20;;;10.30;99.90;;;;;;5098886;28;20017;-52
2024/01/24 04:45:22;;;;;;;2.83;2.30;;;10.30;99.90;;;;;;5100200;28;20100;-55
2024/01/24 04:47:48;;;;;;;1.90;1.60;;;10.30;99.90;;;;;;5099172;28;20111;-52
2024/01/24 04:50:14;;;;;;;4.03;2.22;;;10.30;99.90;;;;;;5099259;28;20030;-49
2024/01/24 04:52:40;;;;;;;1.67;1.50;;;10.30;99.90;;;;;;5101079;28;20028;-50
2024/01/24 04:55:11;;;;;;;3.20;2.20;;;10.30;99.90;;;;;;5096380;28;20020;-52
2024/01/24 04:57:38;;;;;;;4.32;2.20;;;10.30;99.90;;;;;;5094270;28;20435;-52
2024/01/24 05:00:07;;;;;;;3.13;2.30;;;10.30;99.90;;;;;;5098005;28;20024;-52
2024/01/24 05:02:33;;;;;;;3.47;2.90;;;10.30;99.90;;;;;;5092613;28;20103;-52
2024/01/24 05:04:59;;;;;;;5.95;2.80;;;10.40;99.90;;;;;;5098737;28;20461;-53
2024/01/24 05:07:24;;;;;;;5.30;3.50;;;10.40;99.90;;;;;;5100643;28;20016;-53
2024/01/24 05:09:50;;;;;;;5.55;3.95;;;10.50;99.90;;;;;;5099877;28;20016;-51
2024/01/24 05:12:16;;;;;;;5.75;4.38;;;10.50;99.90;;;;;;5099208;28;20393;-52
2024/01/24 05:14:42;;;;;;;9.93;4.75;;;10.60;99.90;;;;;;5101583;28;20512;-53
2024/01/24 05:17:08;;;;;;;8.60;5.53;;;10.70;99.90;;;;;;5098069;28;20086;-53
2024/01/24 05:19:35;;;;;;;11.25;4.80;;;10.80;99.90;;;;;;5101525;28;20019;-51
2024/01/24 05:22:00;;;;;;;18.58;6.20;;;10.90;99.90;;;;;;5098220;28;20027;-51
2024/01/24 05:24:26;;;;;;;11.90;5.30;;;10.90;99.90;;;;;;5100628;28;20024;-52
2024/01/24 05:26:52;;;;;;;12.63;6.10;;;11.00;99.90;;;;;;5098529;28;20024;-52
2024/01/24 05:29:18;;;;;;;8.13;5.30;;;11.00;99.90;;;;;;5099675;28;20055;-52
2024/01/24 05:31:43;;;;;;;10.30;3.78;;;10.90;99.90;;;;;;5100684;28;20070;-53
2024/01/24 05:34:09;;;;;;;8.32;2.90;;;10.80;99.90;;;;;;5098311;28;20024;-53
2024/01/24 05:36:35;;;;;;;13.68;3.40;;;10.60;99.90;;;;;;5101629;28;20032;-54
2024/01/24 05:39:01;;;;;;;18.33;3.38;;;10.20;99.90;;;;;;5098570;28;20609;-53
2024/01/24 05:41:27;;;;;;;22.05;4.38;;;9.90;99.90;;;;;;5100969;28;20022;-52
2024/01/24 05:43:53;;;;;;;19.83;4.82;;;9.70;99.90;;;;;;5099997;28;20016;-50
2024/01/24 05:46:18;;;;;;;13.75;3.55;;;9.50;99.90;;;;;;5099786;28;20020;-53
2024/01/24 05:48:45;;;;;;;23.98;4.30;;;9.40;99.90;;;;;;5101229;28;20391;-53
2024/01/24 05:51:11;;;;;;;27.85;4.53;;;9.40;99.90;;;;;;5098472;28;20012;-56
2024/01/24 05:53:40;;;;;;;26.17;4.28;;;9.30;99.90;;;;;;5101980;28;20098;-54
2024/01/24 05:56:06;;;;;;;24.88;4.07;;;9.30;99.90;;;;;;5096282;28;20043;-53
2024/01/24 05:58:32;;;;;;;31.42;6.00;;;9.30;99.90;;;;;;5096044;28;20371;-53
2024/01/24 06:00:57;;;;;;;26.73;3.75;;;9.20;99.90;;;;;;5096370;28;20055;-53
2024/01/24 06:03:23;;;;;;;24.30;3.90;;;9.20;99.90;;;;;;5093301;28;20020;-54
2024/01/24 06:05:49;;;;;;;26.80;4.53;;;9.20;99.90;;;;;;5092571;28;20117;-52
2024/01/24 06:08:15;;;;;;;27.90;4.13;;;9.30;99.90;;;;;;5091595;28;20374;-54
2024/01/24 06:10:40;;;;;;;13.55;3.80;;;9.30;99.90;;;;;;5092262;28;20020;-53
2024/01/24 06:13:06;;;;;;;18.67;3.25;;;9.30;99.90;;;;;;5091162;28;20027;-53
2024/01/24 06:15:31;;;;;;;27.88;3.88;;;9.30;99.90;;;;;;5092009;28;20052;-51
2024/01/24 06:17:57;;;;;;;15.60;3.38;;;9.30;99.90;;;;;;5092170;28;20020;-53
2024/01/24 06:20:22;;;;;;;15.48;3.30;;;9.40;99.90;;;;;;5092811;28;20024;-53
2024/01/24 06:22:48;;;;;;;15.98;4.18;;;9.40;99.90;;;;;;5092318;28;20023;-53
2024/01/24 06:25:14;;;;;;;21.42;3.15;;;9.50;99.90;;;;;;5098790;28;20016;-52
2024/01/24 06:27:41;;;;;;;15.75;3.20;;;9.50;99.90;;;;;;5106321;28;20027;-53
2024/01/24 06:30:09;;;;;;;20.27;4.13;;;9.50;99.90;;;;;;5102722;28;20020;-53
2024/01/24 06:32:35;;;;;;;18.88;3.08;;;9.60;99.90;;;;;;5099036;28;20024;-53
2024/01/24 06:35:00;;;;;;;20.55;3.83;;;9.60;99.90;;;;;;5094543;28;20024;-53
2024/01/24 06:37:26;;;;;;;22.27;3.53;;;9.60;99.90;;;;;;5097446;28;20027;-53
2024/01/24 06:39:52;;;;;;;23.75;3.92;;;9.60;99.90;;;;;;5094302;28;20503;-53
2024/01/24 06:42:17;;;;;;;22.92;3.25;;;9.50;99.90;;;;;;5095368;28;20141;-52
2024/01/24 06:44:43;;;;;;;19.50;3.90;;;9.50;99.90;;;;;;5095137;28;20061;-52
2024/01/24 06:47:08;;;;;;;27.85;4.22;;;9.50;99.90;;;;;;5103341;27;20531;-53
2024/01/24 06:49:34;;;;;;;20.83;4.00;;;9.50;99.90;;;;;;5106394;28;20012;-54
2024/01/24 06:51:59;;;;;;;18.65;4.28;;;9.50;99.90;;;;;;5103754;28;20058;-54
2024/01/24 06:54:25;;;;;;;22.17;4.15;;;9.50;99.90;;;;;;5094615;28;20486;-54
2024/01/24 06:56:50;;;;;;;22.88;3.17;;;9.50;99.90;;;;;;5096539;28;20094;-53
2024/01/24 06:59:16;;;;;;;20.50;4.10;;;9.50;99.90;;;;;;5094636;28;20026;-56
2024/01/24 07:01:42;;;;;;;22.35;4.30;;;9.50;99.90;;;;;;5098807;28;20100;-49
2024/01/24 07:04:07;;;;;;;23.40;4.55;;;9.40;99.90;;;;;;5102057;28;20470;-50
2024/01/24 07:06:33;;;;;;;27.60;5.32;;;9.40;99.90;;;;;;5101170;28;20476;-52
2024/01/24 07:08:58;;;;;;;24.30;4.32;;;9.50;99.90;;;;;;5099190;28;20036;-52
2024/01/24 07:11:24;;;;;;;17.50;4.47;;;9.40;99.90;;;;;;5097118;28;20396;-53
2024/01/24 07:13:49;;;;;;;23.85;4.13;;;9.40;99.90;;;;;;5103315;28;20016;-54
2024/01/24 07:16:16;;;;;;;25.98;3.67;;;9.40;99.90;;;;;;5104539;28;20473;-52
2024/01/24 07:18:42;;;;;;;18.45;3.80;;;9.30;99.90;;;;;;5100995;28;20027;-52
2024/01/24 07:21:07;;;;;;;21.27;3.60;;;9.30;99.90;;;;;;5101662;28;20035;-54
2024/01/24 07:23:33;;;;;;;26.38;3.47;;;9.20;99.90;;;;;;5103127;28;20023;-52
2024/01/24 07:25:59;;;;;;;16.88;3.15;;;9.20;99.90;;;;;;5102114;28;20024;-52
2024/01/24 07:28:24;;;;;;;21.15;3.58;;;9.20;99.90;;;;;;5102722;28;20031;-51
2024/01/24 07:30:50;;;;;;;20.35;3.53;;;9.20;99.90;;;;;;5102706;28;20091;-50
2024/01/24 07:33:15;;;;;;;25.23;3.28;;;9.10;99.90;;;;;;5103968;28;20383;-53
2024/01/24 07:35:41;;;;;;;19.52;3.72;;;9.10;99.90;;;;;;5104415;28;20370;-52
2024/01/24 07:38:07;;;;;;;17.38;3.85;;;9.20;99.90;;;;;;5102684;28;20020;-50
2024/01/24 07:40:32;;;;;;;19.55;3.10;;;9.10;99.90;;;;;;5104323;28;20488;-53
2024/01/24 07:42:58;;;;;;;13.60;3.10;;;9.20;99.90;;;;;;5101890;28;20548;-52
2024/01/24 07:45:24;;;;;;;26.48;4.57;;;9.20;99.90;;;;;;5104882;28;20015;-51
2024/01/24 07:47:51;;;;;;;15.15;4.00;;;9.20;99.90;;;;;;5103057;28;20018;-51
2024/01/24 07:50:16;;;;;;;23.77;4.30;;;9.30;99.90;;;;;;5103168;28;20452;-51
2024/01/24 07:52:43;;;;;;;26.58;4.70;;;9.20;99.90;;;;;;5106494;28;20063;-52
2024/01/24 07:55:10;;;;;;;24.00;3.88;;;9.20;99.90;;;;;;5103032;28;20552;-51
2024/01/24 07:57:35;;;;;;;21.63;5.60;;;9.20;99.90;;;;;;5106265;28;20016;-52
2024/01/24 08:00:01;;;;;;;28.70;3.78;;;9.10;99.90;;;;;;5105015;28;20026;-51
2024/01/24 08:02:27;;;;;;;26.25;4.53;;;9.00;99.90;;;;;;5105169;28;20020;-52
2024/01/24 08:04:53;;;;;;;33.70;5.05;;;8.90;99.90;;;;;;5106203;28;20053;-52
2024/01/24 08:07:18;;;;;;;24.92;5.00;;;8.60;99.90;;;;;;5104791;28;20483;-51
2024/01/24 08:09:44;;;;;;;35.55;4.95;;;8.50;99.90;;;;;;5106623;28;20091;-51
2024/01/24 08:12:09;;;;;;;40.08;5.90;;;8.40;99.90;;;;;;5094547;28;20040;-52
2024/01/24 08:14:35;;;;;;;38.40;5.40;;;8.40;99.90;;;;;;5091178;28;20104;-52
2024/01/24 08:17:08;;;;;;;37.83;4.97;;;8.30;99.90;;;;;;5090782;28;20020;-50
2024/01/24 08:19:34;;;;;;;17.73;4.32;;;8.30;99.90;;;;;;5093645;28;20035;-51
2024/01/24 08:22:00;;;;;;;43.60;5.75;;;8.40;99.90;;;;;;5104964;28;20024;-52
2024/01/24 08:24:25;;;;;;;35.25;6.35;;;8.40;99.90;;;;;;5104092;28;20027;-52
2024/01/24 08:26:52;;;;;;;46.78;6.88;;;8.50;99.90;;;;;;5106294;28;20016;-52
2024/01/24 08:29:18;;;;;;;38.03;6.55;;;8.60;99.90;;;;;;5104301;28;20397;-53
2024/01/24 08:31:44;;;;;;;50.50;8.25;;;8.60;99.90;;;;;;5095881;28;20024;-52
2024/01/24 08:34:09;;;;;;;53.92;7.43;;;8.60;99.90;;;;;;5095069;28;20071;-52
2024/01/24 08:36:36;;;;;;;49.70;7.45;;;8.60;99.90;;;;;;5101351;28;20393;-53
2024/01/24 08:39:03;;;;;;;53.53;6.90;;;8.60;99.90;;;;;;5105151;28;20028;-53
2024/01/24 08:41:29;;;;;;;56.30;7.70;;;8.70;99.90;;;;;;5105715;28;20369;-53
2024/01/24 08:43:57;;;;;;;75.55;12.25;;;8.60;99.90;;;;;;5106043;28;20016;-53
2024/01/24 08:46:23;;;;;;;52.80;8.32;;;8.60;99.90;;;;;;5099743;28;20527;-53
2024/01/24 08:48:48;;;;;;;54.45;10.07;;;8.60;99.90;;;;;;5105652;28;20027;-51
2024/01/24 08:51:14;;;;;;;67.72;9.65;;;8.60;99.90;;;;;;5104501;28;20104;-51
2024/01/24 08:53:39;;;;;;;72.18;9.18;;;8.60;99.90;;;;;;5106016;28;20035;-52
2024/01/24 08:56:05;;;;;;;85.85;10.38;;;8.60;99.90;;;;;;5101086;28;20020;-53
2024/01/24 08:58:30;;;;;;;60.85;9.43;;;8.60;99.90;;;;;;5105777;28;20023;-50
2024/01/24 09:00:56;;;;;;;56.88;8.80;;;8.60;99.90;;;;;;5104797;28;20516;-51
2024/01/24 09:03:22;;;;;;;79.50;9.75;;;8.60;99.90;;;;;;5102856;28;20023;-52
2024/01/24 09:05:50;;;;;;;57.70;9.93;;;8.60;99.90;;;;;;5106035;28;20019;-53
2024/01/24 09:08:16;;;;;;;51.80;8.15;;;8.60;99.90;;;;;;5103050;28;20031;-52
2024/01/24 09:10:42;;;;;;;60.20;7.95;;;8.70;99.90;;;;;;5100190;28;20221;-50
2024/01/24 09:13:08;;;;;;;46.75;7.85;;;8.80;99.90;;;;;;5104984;28;20195;-50
2024/01/24 09:15:34;;;;;;;58.25;9.32;;;8.70;99.90;;;;;;5106546;28;20016;-53
2024/01/24 09:17:59;;;;;;;57.58;9.70;;;8.70;99.90;;;;;;5105487;28;20472;-51
2024/01/24 09:20:25;;;;;;;43.72;7.47;;;8.60;99.90;;;;;;5105071;28;20016;-52
2024/01/24 09:22:50;;;;;;;43.70;8.00;;;8.60;99.90;;;;;;5106247;28;20012;-52
2024/01/24 09:25:16;;;;;;;45.65;7.88;;;8.60;99.90;;;;;;5105029;28;20096;-53
2024/01/24 09:27:42;;;;;;;42.30;7.78;;;8.60;99.90;;;;;;5107008;28;20470;-53
2024/01/24 09:30:08;;;;;;;42.40;7.68;;;8.60;99.90;;;;;;5105346;28;20031;-53
2024/01/24 09:32:33;;;;;;;49.58;9.35;;;8.70;99.90;;;;;;5106427;28;20024;-53
2024/01/24 09:34:59;;;;;;;61.33;8.73;;;8.70;99.90;;;;;;5105744;28;20055;-52
2024/01/24 09:37:26;;;;;;;55.42;9.15;;;8.70;99.90;;;;;;5105069;28;20024;-53
2024/01/24 09:39:52;;;;;;;50.63;8.30;;;8.70;99.90;;;;;;5106630;28;20028;-53
2024/01/24 09:42:27;;;;;;;46.63;8.05;;;8.70;99.90;;;;;;5105354;28;20020;-52
2024/01/24 09:44:57;;;;;;;46.70;7.68;;;8.80;99.90;;;;;;5105628;28;20026;-51
2024/01/24 09:47:24;;;;;;;62.13;8.45;;;8.70;99.90;;;;;;5105964;28;20405;-50
2024/01/24 09:49:50;;;;;;;50.72;8.82;;;8.70;99.90;;;;;;5106805;28;20019;-51
2024/01/24 09:52:24;;;;;;;38.38;7.10;;;8.70;99.90;;;;;;5105144;28;20476;-50
2024/01/24 09:54:55;;;;;;;48.50;7.93;;;8.80;99.90;;;;;;5106668;28;20019;-52
2024/01/24 09:57:22;;;;;;;39.60;6.78;;;8.90;99.90;;;;;;5105771;28;20035;-53
2024/01/24 09:59:48;;;;;;;41.53;8.02;;;8.90;99.90;;;;;;5106788;28;20404;-53
2024/01/24 10:02:14;;;;;;;35.20;6.57;;;8.80;99.90;;;;;;5105805;28;20452;-52
2024/01/24 10:04:42;;;;;;;44.38;7.72;;;8.80;99.90;;;;;;5107098;28;20027;-51
2024/01/24 10:07:09;;;;;;;45.28;7.93;;;8.80;99.90;;;;;;5106045;28;20016;-52
2024/01/24 10:09:34;;;;;;;46.63;8.27;;;8.80;99.90;;;;;;5107360;28;20015;-52
2024/01/24 10:12:00;;;;;;;40.67;6.82;;;8.90;99.90;;;;;;5105451;28;20388;-54
2024/01/24 10:14:25;;;;;;;44.75;6.30;;;8.80;99.90;;;;;;5106093;28;20020;-53
2024/01/24 10:16:52;;;;;;;39.45;7.90;;;8.70;99.90;;;;;;5106897;28;20388;-53
2024/01/24 10:19:22;;;;;;;43.53;7.20;;;8.80;99.90;;;;;;5106222;28;20030;-50
2024/01/24 10:21:48;;;;;;;44.88;6.80;;;8.80;99.90;;;;;;5107402;28;20043;-50
2024/01/24 10:24:13;;;;;;;32.65;5.53;;;8.80;99.90;;;;;;5106733;28;20051;-53
2024/01/24 10:26:39;;;;;;;37.03;7.20;;;8.80;99.90;;;;;;5098487;28;20396;-53
2024/01/24 10:29:07;;;;;;;51.90;7.28;;;8.80;99.90;;;;;;5097422;28;20456;-52
2024/01/24 10:31:33;;;;;;;31.00;6.85;;;8.70;99.90;;;;;;5090868;28;20096;-53
2024/01/24 10:33:58;;;;;;;35.25;7.10;;;8.80;99.90;;;;;;5106933;28;20059;-51
2024/01/24 10:36:26;;;;;;;38.80;7.03;;;8.90;99.90;;;;;;5106450;28;20038;-51
2024/01/24 10:38:58;;;;;;;40.95;6.85;;;9.00;99.90;;;;;;5106957;28;20092;-53
2024/01/24 10:41:25;;;;;;;29.20;6.43;;;9.10;99.90;;;;;;5104857;28;20456;-53
2024/01/24 10:43:56;;;;;;;41.35;6.72;;;9.20;99.90;;;;;;5107285;28;20099;-53
2024/01/24 10:46:23;;;;;;;30.60;6.65;;;9.40;99.90;;;;;;5107936;28;20567;-52
2024/01/24 10:48:53;;;;;;;30.70;6.03;;;9.50;99.90;;;;;;5111477;28;20023;-53
2024/01/24 10:51:19;;;;;;;36.80;6.45;;;9.60;99.90;;;;;;5110502;28;20099;-53
2024/01/24 10:53:45;;;;;;;31.20;7.40;;;9.70;99.90;;;;;;5111694;28;20028;-53
2024/01/24 10:56:15;;;;;;;31.20;6.35;;;9.80;99.90;;;;;;5107968;28;20073;-51
2024/01/24 10:58:42;;;;;;;31.98;6.72;;;9.80;99.90;;;;;;5110922;28;20026;-51
2024/01/24 11:01:08;;;;;;;34.38;6.40;;;9.80;99.90;;;;;;5110583;28;20529;-52
2024/01/24 11:03:33;;;;;;;33.38;7.18;;;9.90;99.90;;;;;;5111184;28;20106;-52
2024/01/24 11:06:03;;;;;;;32.40;6.47;;;9.90;99.90;;;;;;5109671;28;20030;-53
2024/01/24 11:08:56;;;;;;;31.70;5.93;;;10.00;99.90;;;;;;5108105;28;20524;-53
2024/01/24 11:11:23;;;;;;;35.58;7.28;;;10.10;99.90;;;;;;5110684;28;20035;-52
2024/01/24 11:13:51;;;;;;;38.33;6.32;;;10.10;99.90;;;;;;5111592;27;20300;-53
2024/01/24 11:16:30;;;;;;;36.35;7.00;;;10.20;99.90;;;;;;5111060;28;20430;-51
2024/01/24 11:18:59;;;;;;;34.90;6.70;;;10.20;99.90;;;;;;5106709;28;20062;-50
2024/01/24 11:21:27;;;;;;;42.20;7.55;;;10.20;99.90;;;;;;5094761;28;20012;-53
2024/01/24 11:23:53;;;;;;;39.00;7.88;;;10.20;99.90;;;;;;5090209;28;20596;-49
2024/01/24 11:26:19;;;;;;;33.15;7.05;;;10.20;99.90;;;;;;5089836;28;20020;-49
2024/01/24 11:28:45;;;;;;;34.13;7.10;;;10.20;99.90;;;;;;5090398;28;20058;-51
2024/01/24 11:31:12;;;;;;;27.88;6.63;;;10.40;99.90;;;;;;5089770;28;20047;-51
2024/01/24 11:34:07;;;;;;;35.35;6.55;;;10.40;99.90;;;;;;5088867;28;20023;-50
2024/01/24 11:36:47;;;;;;;40.35;7.13;;;10.30;99.90;;;;;;5087150;28;20383;-52
2024/01/24 11:39:34;;;;;;;40.20;8.35;;;10.20;99.90;;;;;;5086984;28;20059;-51
2024/01/24 11:42:26;;;;;;;26.65;6.03;;;10.20;99.90;;;;;;5088874;28;20016;-51
2024/01/24 11:45:12;;;;;;;41.67;7.57;;;10.20;99.90;;;;;;5082234;28;20457;-50
2024/01/24 11:47:38;;;;;;;33.15;6.75;;;10.30;99.90;;;;;;5090244;28;20427;-52
2024/01/24 11:50:04;;;;;;;40.67;6.93;;;10.30;99.90;;;;;;5093235;28;20485;-51
2024/01/24 11:52:30;;;;;;;31.13;6.38;;;10.20;99.90;;;;;;5090728;28;20046;-52
2024/01/24 11:54:55;;;;;;;28.27;6.18;;;10.20;99.90;;;;;;5089276;28;20032;-52
2024/01/24 11:57:21;;;;;;;37.63;8.07;;;10.30;99.90;;;;;;5090134;28;20044;-52
2024/01/24 11:59:47;;;;;;;37.63;7.63;;;10.30;99.90;;;;;;5092328;28;20419;-53
2024/01/24 12:02:13;;;;;;;39.72;6.55;;;10.30;99.90;;;;;;5087781;28;20028;-52
2024/01/24 12:04:38;;;;;;;32.42;7.00;;;10.30;99.90;;;;;;5089145;28;20132;-52
2024/01/24 12:07:04;;;;;;;33.65;7.00;;;10.30;99.90;;;;;;5089348;28;20400;-52
2024/01/24 12:09:29;;;;;;;25.02;6.20;;;10.30;99.90;;;;;;5089324;28;20500;-53
2024/01/24 12:11:55;;;;;;;29.02;6.25;;;10.40;99.90;;;;;;5088205;28;20031;-53
2024/01/24 12:14:21;;;;;;;28.60;5.75;;;10.40;99.90;;;;;;5091092;28;20031;-51
2024/01/24 12:16:47;;;;;;;34.80;6.40;;;10.40;99.90;;;;;;5090769;28;20020;-52
2024/01/24 12:19:16;;;;;;;23.23;6.05;;;10.40;99.90;;;;;;5091043;28;20393;-51
2024/01/24 12:21:42;;;;;;;41.58;9.25;;;10.40;99.90;;;;;;5089315;28;20016;-53
2024/01/24 12:24:08;;;;;;;33.67;7.57;;;10.40;99.90;;;;;;5089983;28;20104;-52
2024/01/24 12:26:35;;;;;;;36.92;6.55;;;10.40;99.90;;;;;;5090737;28;20087;-51
2024/01/24 12:29:03;;;;;;;37.58;7.15;;;10.40;99.90;;;;;;5090619;28;20028;-51
2024/01/24 12:31:29;;;;;;;42.20;7.70;;;10.40;99.90;;;;;;5091466;28;20028;-51
2024/01/24 12:33:55;;;;;;;28.98;6.18;;;10.40;99.90;;;;;;5091511;28;20073;-53
2024/01/24 12:36:22;;;;;;;35.40;7.28;;;10.40;99.90;;;;;;5091724;28;20511;-52
2024/01/24 12:38:50;;;;;;;33.97;8.68;;;10.40;99.90;;;;;;5090609;28;20393;-51
2024/01/24 12:41:16;;;;;;;46.95;7.28;;;10.40;99.90;;;;;;5091463;28;20024;-53
2024/01/24 12:43:42;;;;;;;34.50;7.10;;;10.30;99.90;;;;;;5091231;28;20162;-53